Time;durP1;ratioP1;P1;durP2;ratioP2;P2;SDS_P1;SDS_P2;PMS_P1;PMS_P2;Temp;Humidity;BMP_temperature;BMP_pressure;BME280_temperature;BME280_humidity;BME280_pressure;Samples;Min_cycle;Max_cycle;Signal;HPM_P1;HPM_P2
2021/01/28 00:03:28;;;;;;;24.97;13.50;;;;;6.50;100571.00;;;;10582088;28;20207;-75
2021/01/28 00:08:29;;;;;;;24.43;12.27;;;;;6.50;100564.00;;;;10581402;28;20180;-75
2021/01/28 00:13:31;;;;;;;20.73;12.17;;;;;6.50;100564.00;;;;10563122;28;20200;-75
2021/01/28 00:18:32;;;;;;;21.33;12.47;;;;;6.50;100546.00;;;;10546328;28;20187;-75
2021/01/28 00:23:34;;;;;;;20.03;12.37;;;;;6.50;100550.00;;;;10564176;27;20218;-75
2021/01/28 00:28:43;;;;;;;22.17;12.37;;;;;6.50;100535.00;;;;10565408;28;20184;-75
2021/01/28 00:33:45;;;;;;;16.83;11.83;;;;;6.60;100519.00;;;;10562696;28;20192;-75
2021/01/28 00:38:46;;;;;;;17.30;11.07;;;;;6.60;100501.00;;;;10530459;28;20534;-75
2021/01/28 00:44:02;;;;;;;16.90;10.57;;;;;6.60;100480.00;;;;10529061;28;20302;-75
2021/01/28 00:49:04;;;;;;;15.90;11.43;;;;;6.50;100469.00;;;;10520703;28;20236;-75
2021/01/28 00:54:06;;;;;;;19.83;11.93;;;;;6.50;100463.00;;;;10560562;28;20206;-75
2021/01/28 00:59:08;;;;;;;22.60;12.67;;;;;6.50;100445.00;;;;10503552;28;20249;-75
2021/01/28 01:04:13;;;;;;;19.73;12.10;;;;;6.40;100432.00;;;;10533773;28;20681;-75
2021/01/28 01:09:14;;;;;;;19.23;12.50;;;;;6.40;100433.00;;;;10529084;28;20306;-75
2021/01/28 01:14:24;;;;;;;16.87;10.90;;;;;6.30;100430.00;;;;10547220;28;20192;-75
2021/01/28 01:19:27;;;;;;;17.63;12.13;;;;;6.30;100419.00;;;;10528264;28;20773;-75
2021/01/28 01:24:37;;;;;;;18.43;11.43;;;;;6.30;100408.00;;;;10503857;28;20227;-75
2021/01/28 01:29:39;;;;;;;17.43;10.70;;;;;6.30;100405.00;;;;10507748;28;20213;-75
2021/01/28 01:34:46;;;;;;;17.30;11.87;;;;;6.30;100394.00;;;;10528981;28;20231;-75
2021/01/28 01:39:47;;;;;;;15.73;10.07;;;;;6.30;100379.00;;;;10535484;28;20225;-75
2021/01/28 01:44:49;;;;;;;17.40;9.97;;;;;6.30;100371.00;;;;10535411;28;20224;-75
2021/01/28 01:50:07;;;;;;;16.20;11.40;;;;;6.30;100349.00;;;;10552528;28;20597;-75
2021/01/28 01:55:09;;;;;;;18.77;10.50;;;;;6.30;100335.00;;;;10604121;27;20199;-75
2021/01/28 02:00:25;;;;;;;14.03;10.23;;;;;6.30;100337.00;;;;10594573;27;20183;-75
2021/01/28 02:05:47;;;;;;;17.23;11.27;;;;;6.30;100330.00;;;;10570984;28;20196;-75
2021/01/28 02:11:28;;;;;;;19.23;11.83;;;;;6.30;100283.00;;;;10586491;28;20351;-75
2021/01/28 02:16:55;;;;;;;16.83;11.30;;;;;6.30;100268.00;;;;10551093;28;20677;-75
2021/01/28 02:22:44;;;;;;;17.70;11.17;;;;;6.20;100250.00;;;;10549158;27;20191;-76
2021/01/28 02:27:45;;;;;;;19.30;11.30;;;;;6.20;100239.00;;;;10610499;27;20199;-75
2021/01/28 02:33:02;;;;;;;15.47;11.20;;;;;6.20;100238.00;;;;10609781;27;20558;-76
2021/01/28 02:38:25;;;;;;;16.27;11.37;;;;;6.20;100234.00;;;;10560976;28;20529;-76
2021/01/28 02:43:35;;;;;;;21.43;12.70;;;;;6.20;100225.00;;;;10535097;28;20211;-76
2021/01/28 02:48:57;;;;;;;20.97;13.20;;;;;6.20;100210.00;;;;10532932;28;20283;-76
2021/01/28 02:54:11;;;;;;;18.60;12.07;;;;;6.20;100190.00;;;;10561056;27;20199;-76
2021/01/28 02:59:13;;;;;;;20.53;12.63;;;;;6.20;100181.00;;;;10542860;28;20279;-76
2021/01/28 03:04:21;;;;;;;24.67;13.50;;;;;6.20;100176.00;;;;10533239;28;20204;-76
2021/01/28 03:09:46;;;;;;;20.33;13.43;;;;;6.30;100168.00;;;;10554033;28;20601;-76
2021/01/28 03:14:55;;;;;;;19.63;13.00;;;;;6.30;100159.00;;;;10548812;28;20250;-76
2021/01/28 03:19:56;;;;;;;22.33;13.30;;;;;6.30;100147.00;;;;10532932;28;20556;-75
2021/01/28 03:24:59;;;;;;;17.07;11.30;;;;;6.30;100145.00;;;;10574315;27;20318;-75
2021/01/28 03:30:10;;;;;;;18.50;12.23;;;;;6.30;100146.00;;;;10566145;28;20200;-75
2021/01/28 03:35:12;;;;;;;20.10;12.77;;;;;6.30;100138.00;;;;10565235;28;20207;-75
2021/01/28 03:40:14;;;;;;;19.00;12.47;;;;;6.30;100124.00;;;;10548770;28;20172;-75
2021/01/28 03:45:17;;;;;;;23.33;12.00;;;;;6.40;100108.00;;;;10547518;28;20204;-75
2021/01/28 03:50:22;;;;;;;19.87;11.93;;;;;6.30;100098.00;;;;10530634;28;20215;-75
2021/01/28 03:55:43;;;;;;;20.50;11.43;;;;;6.40;100091.00;;;;10586949;27;20230;-75
2021/01/28 04:00:45;;;;;;;15.17;9.63;;;;;6.40;100073.00;;;;10573470;27;20279;-75
2021/01/28 04:05:53;;;;;;;18.43;11.10;;;;;6.40;100069.00;;;;10572376;27;20234;-75
2021/01/28 04:11:24;;;;;;;17.43;11.30;;;;;6.40;100047.00;;;;10606800;27;20207;-75
2021/01/28 04:16:29;;;;;;;18.97;10.97;;;;;6.40;100035.00;;;;10589752;27;20179;-75
2021/01/28 04:21:31;;;;;;;16.80;11.00;;;;;6.40;100029.00;;;;10572559;27;20232;-74
2021/01/28 04:26:36;;;;;;;15.33;10.80;;;;;6.40;100010.00;;;;10584481;27;20758;-75
2021/01/28 04:31:38;;;;;;;18.17;10.87;;;;;6.40;100002.00;;;;10563826;28;20216;-74
2021/01/28 04:36:49;;;;;;;16.10;10.97;;;;;6.40;99995.00;;;;10563280;28;20886;-74
2021/01/28 04:42:18;;;;;;;15.30;9.70;;;;;6.40;99976.00;;;;10581999;28;20603;-75
2021/01/28 04:47:23;;;;;;;14.43;9.67;;;;;6.40;99967.00;;;;10504515;28;20594;-74
2021/01/28 04:52:26;;;;;;;13.43;9.33;;;;;6.40;99951.00;;;;10544736;28;20203;-74
2021/01/28 04:57:54;;;;;;;13.70;9.23;;;;;6.50;99935.00;;;;10620276;28;20196;-74
2021/01/28 05:03:39;;;;;;;13.03;9.07;;;;;6.50;99920.00;;;;10592033;27;20216;-74
2021/01/28 05:09:04;;;;;;;13.27;8.80;;;;;6.50;99896.00;;;;10594680;27;20198;-74
2021/01/28 05:14:28;;;;;;;13.63;9.60;;;;;6.50;99888.00;;;;10540712;28;20191;-74
2021/01/28 05:19:52;;;;;;;13.13;9.23;;;;;6.50;99871.00;;;;10588517;28;20554;-74
2021/01/28 05:25:29;;;;;;;12.87;8.27;;;;;6.50;99847.00;;;;10546179;28;20196;-75
2021/01/28 05:30:49;;;;;;;15.87;8.37;;;;;6.50;99824.00;;;;10588309;28;20215;-75
2021/01/28 05:36:05;;;;;;;12.13;8.10;;;;;6.60;99812.00;;;;10553224;28;20602;-74
2021/01/28 05:41:26;;;;;;;8.97;7.20;;;;;6.60;99792.00;;;;10537841;28;20520;-75
2021/01/28 05:46:30;;;;;;;9.47;7.43;;;;;6.60;99763.00;;;;10552869;28;20584;-75
2021/01/28 05:51:40;;;;;;;10.00;7.27;;;;;6.60;99742.00;;;;10574278;27;20246;-75
2021/01/28 05:57:02;;;;;;;12.20;6.37;;;;;6.70;99731.00;;;;10595905;27;20266;-75
2021/01/28 06:02:40;;;;;;;8.47;6.10;;;;;6.70;99710.00;;;;10596807;27;20286;-75
2021/01/28 06:08:14;;;;;;;7.47;6.20;;;;;6.70;99689.00;;;;10538812;28;20695;-75
2021/01/28 06:13:50;;;;;;;7.27;5.93;;;;;6.70;99672.00;;;;10551607;28;20215;-75
2021/01/28 06:19:25;;;;;;;7.97;5.60;;;;;6.80;99661.00;;;;10537912;28;20192;-75
2021/01/28 06:24:49;;;;;;;6.50;4.43;;;;;6.80;99647.00;;;;10521772;28;20602;-75
2021/01/28 06:30:21;;;;;;;5.30;4.20;;;;;6.80;99642.00;;;;10510313;28;20200;-75
2021/01/28 06:35:45;;;;;;;4.73;3.80;;;;;6.90;99635.00;;;;10526121;28;20188;-75
2021/01/28 06:41:27;;;;;;;5.07;3.47;;;;;6.90;99615.00;;;;10529815;28;20195;-75
2021/01/28 06:47:00;;;;;;;4.10;2.87;;;;;7.00;99602.00;;;;10550472;28;20206;-75
2021/01/28 06:52:58;;;;;;;4.47;3.37;;;;;7.00;99592.00;;;;10553457;28;20212;-75
2021/01/28 06:58:39;;;;;;;3.50;2.93;;;;;7.10;99595.00;;;;10566773;28;20196;-75
2021/01/28 07:04:30;;;;;;;3.70;2.90;;;;;7.10;99586.00;;;;10549687;27;20192;-75
2021/01/28 07:09:50;;;;;;;6.03;2.70;;;;;7.20;99576.00;;;;10540971;28;20640;-75
2021/01/28 07:14:52;;;;;;;2.90;2.50;;;;;7.20;99565.00;;;;10532996;28;20697;-75
2021/01/28 07:20:55;;;;;;;2.90;2.70;;;;;7.30;99570.00;;;;10557348;28;20184;-75
2021/01/28 07:26:15;;;;;;;5.70;3.30;;;;;7.40;99548.00;;;;10506997;28;20204;-75
2021/01/28 07:31:43;;;;;;;4.20;3.70;;;;;7.50;99538.00;;;;10532233;28;20199;-75
2021/01/28 07:36:52;;;;;;;3.40;3.10;;;;;7.70;99528.00;;;;10560610;28;20208;-75
2021/01/28 07:42:31;;;;;;;4.17;3.77;;;;;7.90;99513.00;;;;10553112;28;20242;-75
2021/01/28 07:47:48;;;;;;;5.63;3.53;;;;;8.10;99498.00;;;;10528307;28;20236;-74
2021/01/28 07:52:54;;;;;;;3.10;2.80;;;;;8.20;99491.00;;;;10518932;27;20200;-75
2021/01/28 07:57:56;;;;;;;4.57;3.40;;;;;8.40;99476.00;;;;10564819;28;20214;-75
2021/01/28 08:03:04;;;;;;;6.03;4.60;;;;;8.50;99492.00;;;;10530597;28;20261;-75
2021/01/28 08:08:12;;;;;;;3.23;2.90;;;;;8.60;99491.00;;;;10547265;28;20271;-74
2021/01/28 08:13:26;;;;;;;3.50;3.20;;;;;8.70;99490.00;;;;10521608;28;20219;-74
2021/01/28 08:18:30;;;;;;;4.67;3.40;;;;;8.80;99494.00;;;;10505802;28;20544;-74
2021/01/28 08:23:33;;;;;;;4.77;3.73;;;;;8.80;99481.00;;;;10535969;27;20276;-74
2021/01/28 08:28:38;;;;;;;5.13;3.97;;;;;8.90;99483.00;;;;10575284;28;20716;-75
2021/01/28 08:33:42;;;;;;;5.73;4.17;;;;;8.90;99471.00;;;;10566660;27;20298;-75
2021/01/28 08:38:43;;;;;;;6.23;4.60;;;;;9.00;99475.00;;;;10585402;27;20245;-75
2021/01/28 08:43:45;;;;;;;5.83;4.60;;;;;9.00;99487.00;;;;10622892;27;20250;-75
2021/01/28 08:48:47;;;;;;;5.53;5.03;;;;;9.10;99479.00;;;;10525926;28;20341;-74
2021/01/28 08:53:58;;;;;;;10.53;6.77;;;;;9.20;99471.00;;;;10569554;28;20671;-74
2021/01/28 08:59:03;;;;;;;10.27;8.80;;;;;9.40;99475.00;;;;10374955;28;20237;-75
2021/01/28 09:04:14;;;;;;;9.53;7.50;;;;;9.50;99481.00;;;;10374999;28;64732;-74
2021/01/28 09:09:31;;;;;;;7.90;5.70;;;;;9.60;99473.00;;;;10495477;28;20193;-74
2021/01/28 09:14:35;;;;;;;6.87;5.93;;;;;9.80;99470.00;;;;10478163;28;20652;-74
2021/01/28 09:19:41;;;;;;;9.63;6.67;;;;;9.90;99468.00;;;;10471246;28;20282;-75
2021/01/28 09:24:46;;;;;;;10.73;9.73;;;;;9.80;99469.00;;;;10494515;28;20185;-74
2021/01/28 09:29:50;;;;;;;13.33;11.90;;;;;9.80;99473.00;;;;10457851;28;20209;-75
2021/01/28 09:35:08;;;;;;;9.30;7.93;;;;;9.90;99471.00;;;;10475866;28;20595;-75
2021/01/28 09:40:29;;;;;;;6.97;4.47;;;;;10.10;99473.00;;;;10486901;28;20637;-75
2021/01/28 09:45:30;;;;;;;6.27;4.80;;;;;10.20;99470.00;;;;10491848;28;20251;-75
2021/01/28 09:50:32;;;;;;;4.60;4.20;;;;;10.40;99480.00;;;;10499295;28;20228;-75
2021/01/28 09:55:35;;;;;;;5.10;4.10;;;;;10.50;99483.00;;;;10483211;28;20963;-75
2021/01/28 10:00:36;;;;;;;8.53;5.07;;;;;10.80;99483.00;;;;10465108;28;20181;-75
2021/01/28 10:05:37;;;;;;;7.63;5.43;;;;;10.90;99485.00;;;;10500613;28;20618;-75
2021/01/28 10:10:39;;;;;;;4.80;3.97;;;;;10.90;99480.00;;;;10501933;28;20250;-75
2021/01/28 10:15:40;;;;;;;4.40;3.43;;;;;10.90;99491.00;;;;10501108;28;20193;-74
2021/01/28 10:20:43;;;;;;;8.30;4.73;;;;;11.20;99500.00;;;;10498696;28;20188;-75
2021/01/28 10:25:45;;;;;;;4.10;3.50;;;;;11.40;99515.00;;;;10517581;28;20194;-75
2021/01/28 10:30:46;;;;;;;4.60;3.77;;;;;11.30;99511.00;;;;10473863;28;20635;-76
2021/01/28 10:35:52;;;;;;;5.57;4.30;;;;;11.30;99519.00;;;;10493413;28;20181;-74
2021/01/28 10:40:55;;;;;;;4.50;3.33;;;;;10.90;99522.00;;;;10483357;28;21553;-74
2021/01/28 10:45:57;;;;;;;3.33;2.77;;;;;11.00;99507.00;;;;10483602;28;20289;-74
2021/01/28 10:50:59;;;;;;;9.03;3.10;;;;;11.10;99522.00;;;;10514663;28;20202;-75
2021/01/28 10:56:03;;;;;;;4.40;2.93;;;;;11.20;99522.00;;;;10463206;28;20190;-75
2021/01/28 11:01:05;;;;;;;3.90;3.50;;;;;11.30;99518.00;;;;10456349;28;20597;-75
2021/01/28 11:06:06;;;;;;;8.07;6.53;;;;;11.40;99524.00;;;;10457754;28;20653;-74
2021/01/28 11:11:08;;;;;;;6.80;4.77;;;;;11.30;99513.00;;;;10440482;28;20730;-75
2021/01/28 11:16:12;;;;;;;6.67;5.03;;;;;11.30;99527.00;;;;10441628;28;20225;-75
2021/01/28 11:21:13;;;;;;;5.20;4.30;;;;;11.50;99517.00;;;;10459686;28;20225;-74
2021/01/28 11:26:15;;;;;;;5.47;4.27;;;;;11.60;99521.00;;;;10482569;28;20197;-74
2021/01/28 11:31:17;;;;;;;5.30;4.13;;;;;11.50;99525.00;;;;10482319;28;20237;-73
2021/01/28 11:36:18;;;;;;;6.20;4.03;;;;;11.60;99518.00;;;;10482372;28;20204;-74
2021/01/28 11:41:19;;;;;;;8.10;4.60;;;;;11.50;99518.00;;;;10498455;28;20584;-74
2021/01/28 11:46:21;;;;;;;6.43;5.27;;;;;11.40;99524.00;;;;10481392;28;20558;-73
2021/01/28 11:51:23;;;;;;;10.60;6.63;;;;;11.60;99515.00;;;;10497784;28;20213;-74
2021/01/28 11:56:33;;;;;;;13.60;6.40;;;;;11.40;99527.00;;;;10480858;28;20249;-75
2021/01/28 12:01:34;;;;;;;12.20;6.07;;;;;11.80;99524.00;;;;10480390;28;20235;-75
2021/01/28 12:06:40;;;;;;;8.53;5.73;;;;;12.00;99515.00;;;;10496521;28;20631;-74
2021/01/28 12:11:41;;;;;;;6.90;4.03;;;;;12.00;99518.00;;;;10497167;28;20793;-74
2021/01/28 12:16:42;;;;;;;7.23;5.87;;;;;11.80;99540.00;;;;10497488;28;20211;-75
2021/01/28 12:21:44;;;;;;;9.40;6.00;;;;;11.70;99544.00;;;;10497482;28;20193;-75
2021/01/28 12:26:46;;;;;;;11.37;6.70;;;;;11.80;99557.00;;;;10513957;28;20208;-72
2021/01/28 12:31:47;;;;;;;8.77;6.27;;;;;12.20;99548.00;;;;10495402;28;20206;-73
2021/01/28 12:36:49;;;;;;;7.87;6.47;;;;;12.50;99555.00;;;;10470330;28;20617;-73
2021/01/28 12:41:50;;;;;;;6.57;5.97;;;;;12.80;99556.00;;;;10466764;28;20228;-73
2021/01/28 12:46:51;;;;;;;8.07;4.90;;;;;12.80;99548.00;;;;10460153;28;20213;-73
2021/01/28 12:51:53;;;;;;;5.27;4.40;;;;;12.60;99571.00;;;;10488886;28;20197;-73
2021/01/28 12:56:55;;;;;;;8.67;5.37;;;;;12.30;99567.00;;;;10491131;28;20611;-73
2021/01/28 13:01:57;;;;;;;5.73;4.30;;;;;12.20;99579.00;;;;10476753;28;20189;-73
2021/01/28 13:07:02;;;;;;;6.37;4.33;;;;;12.10;99583.00;;;;10472571;28;20198;-74
2021/01/28 13:12:04;;;;;;;6.80;4.50;;;;;12.00;99588.00;;;;10461001;28;20289;-74
2021/01/28 13:17:06;;;;;;;4.83;4.33;;;;;12.00;99587.00;;;;10462479;28;20506;-74
2021/01/28 13:22:07;;;;;;;7.33;4.33;;;;;11.90;99611.00;;;;10459247;28;20189;-74
2021/01/28 13:27:09;;;;;;;6.10;4.10;;;;;11.90;99613.00;;;;10457107;28;20189;-74
2021/01/28 13:32:15;;;;;;;4.93;3.70;;;;;11.70;99619.00;;;;10501270;28;20209;-74
2021/01/28 13:37:17;;;;;;;11.13;6.70;;;;;11.70;99621.00;;;;10514898;28;20197;-74
2021/01/28 13:42:18;;;;;;;6.90;3.97;;;;;11.60;99630.00;;;;10464870;28;20182;-76
2021/01/28 13:47:20;;;;;;;7.90;4.13;;;;;11.50;99627.00;;;;10436509;28;20244;-75
2021/01/28 13:52:22;;;;;;;6.73;3.93;;;;;11.50;99636.00;;;;10434780;28;20221;-74
2021/01/28 13:57:23;;;;;;;6.80;4.10;;;;;11.50;99646.00;;;;10465184;28;20526;-74
2021/01/28 14:02:24;;;;;;;5.53;3.00;;;;;11.50;99642.00;;;;10490677;28;20207;-74
2021/01/28 14:07:26;;;;;;;5.27;3.00;;;;;11.40;99649.00;;;;10465117;28;20209;-74
2021/01/28 14:12:28;;;;;;;10.37;3.63;;;;;11.40;99650.00;;;;10469813;28;20205;-75
2021/01/28 14:17:33;;;;;;;8.53;4.03;;;;;11.50;99651.00;;;;10453388;28;20303;-74
2021/01/28 14:22:35;;;;;;;13.17;4.50;;;;;11.40;99668.00;;;;10483069;28;20185;-75
2021/01/28 14:27:37;;;;;;;9.53;3.60;;;;;11.30;99669.00;;;;10498552;28;20243;-74
2021/01/28 14:32:38;;;;;;;11.63;3.93;;;;;11.30;99674.00;;;;10463875;28;20210;-75
2021/01/28 14:37:40;;;;;;;10.73;4.10;;;;;11.30;99670.00;;;;10499067;28;20561;-74
2021/01/28 14:42:42;;;;;;;11.50;4.23;;;;;11.20;99682.00;;;;10480901;28;20255;-75
2021/01/28 14:47:43;;;;;;;14.80;4.10;;;;;11.10;99700.00;;;;10462036;28;20243;-74
2021/01/28 14:52:45;;;;;;;14.90;3.97;;;;;11.10;99703.00;;;;10462366;28;20244;-74
2021/01/28 14:57:47;;;;;;;13.57;4.37;;;;;11.20;99706.00;;;;10462913;28;20213;-74
2021/01/28 15:02:49;;;;;;;15.20;6.73;;;;;11.20;99711.00;;;;10479688;28;20201;-74
2021/01/28 15:07:51;;;;;;;18.60;5.10;;;;;11.10;99724.00;;;;10495143;28;20201;-75
2021/01/28 15:12:52;;;;;;;14.10;5.57;;;;;11.00;99730.00;;;;10480908;28;20221;-75
2021/01/28 15:17:53;;;;;;;18.00;5.23;;;;;10.80;99742.00;;;;10482294;28;20310;-75
2021/01/28 15:22:56;;;;;;;19.37;4.63;;;;;10.70;99750.00;;;;10480727;28;20193;-73
2021/01/28 15:27:58;;;;;;;17.30;4.57;;;;;10.70;99755.00;;;;10501621;28;20250;-73
2021/01/28 15:32:59;;;;;;;12.97;3.63;;;;;10.60;99761.00;;;;10492303;28;20209;-75
2021/01/28 15:38:02;;;;;;;16.10;4.03;;;;;10.50;99764.00;;;;10513081;28;20189;-78
2021/01/28 15:43:04;;;;;;;27.17;5.23;;;;;10.40;99770.00;;;;10489071;28;21714;-77
2021/01/28 15:48:06;;;;;;;15.63;4.30;;;;;10.40;99769.00;;;;10470460;28;20247;-79
2021/01/28 15:53:08;;;;;;;15.70;4.07;;;;;10.40;99760.00;;;;10508677;28;20209;-77
2021/01/28 15:58:10;;;;;;;17.17;4.60;;;;;10.40;99751.00;;;;10487250;28;20190;-77
2021/01/28 16:03:12;;;;;;;25.53;4.70;;;;;10.40;99737.00;;;;10479528;28;20545;-78
2021/01/28 16:08:14;;;;;;;23.13;4.20;;;;;10.30;99750.00;;;;10468961;28;20251;-77
2021/01/28 16:13:16;;;;;;;21.67;5.20;;;;;10.30;99766.00;;;;10465950;28;20204;-78
2021/01/28 16:18:18;;;;;;;18.57;4.50;;;;;10.30;99778.00;;;;10490990;28;20189;-78
2021/01/28 16:23:19;;;;;;;16.37;4.10;;;;;10.30;99779.00;;;;10502950;28;20325;-78
2021/01/28 16:28:22;;;;;;;18.20;3.80;;;;;10.40;99783.00;;;;10474633;28;20193;-78
2021/01/28 16:33:25;;;;;;;17.10;4.40;;;;;10.40;99793.00;;;;10461276;28;20216;-78
2021/01/28 16:38:26;;;;;;;26.47;7.43;;;;;10.40;99803.00;;;;10484256;28;20203;-78
2021/01/28 16:43:28;;;;;;;19.80;6.10;;;;;10.40;99783.00;;;;10502388;28;20675;-77
2021/01/28 16:48:29;;;;;;;19.13;6.17;;;;;10.40;99776.00;;;;10456345;28;20205;-78
2021/01/28 16:53:30;;;;;;;19.30;4.90;;;;;10.40;99780.00;;;;10488023;28;20205;-78
2021/01/28 16:58:32;;;;;;;18.33;4.40;;;;;10.40;99789.00;;;;10461809;28;20193;-78
2021/01/28 17:03:33;;;;;;;20.23;4.63;;;;;10.40;99792.00;;;;10467434;28;20204;-77
2021/01/28 17:08:34;;;;;;;17.83;4.20;;;;;10.40;99799.00;;;;10485594;28;20204;-77
2021/01/28 17:13:36;;;;;;;19.83;4.70;;;;;10.40;99812.00;;;;10494594;28;20209;-78
2021/01/28 17:18:37;;;;;;;19.20;4.30;;;;;10.40;99809.00;;;;10508046;28;20193;-78
2021/01/28 17:23:39;;;;;;;20.10;4.53;;;;;10.40;99810.00;;;;10483133;28;20624;-78
2021/01/28 17:28:40;;;;;;;18.57;4.83;;;;;10.40;99811.00;;;;10497148;28;20696;-79
2021/01/28 17:33:44;;;;;;;18.23;4.77;;;;;10.30;99822.00;;;;10501072;28;20567;-77
2021/01/28 17:38:46;;;;;;;23.60;6.30;;;;;10.30;99830.00;;;;10476674;28;20186;-79
2021/01/28 17:43:47;;;;;;;19.70;6.17;;;;;10.30;99826.00;;;;10451322;28;20232;-78
2021/01/28 17:49:02;;;;;;;22.87;6.47;;;;;10.30;99826.00;;;;10468599;28;20239;-78
2021/01/28 17:54:37;;;;;;;32.53;7.17;;;;;10.30;99841.00;;;;10481683;28;20216;-78
2021/01/28 18:00:17;;;;;;;29.80;7.33;;;;;10.20;99845.00;;;;10472951;28;20194;-79
2021/01/28 18:05:39;;;;;;;25.73;7.00;;;;;10.20;99844.00;;;;10466648;28;20296;-79
2021/01/28 18:10:40;;;;;;;24.60;7.07;;;;;10.30;99850.00;;;;10473006;28;20213;-78
2021/01/28 18:15:55;;;;;;;24.33;6.53;;;;;10.20;99841.00;;;;10475480;28;20228;-79
2021/01/28 18:20:57;;;;;;;29.90;7.00;;;;;10.30;99852.00;;;;10444588;28;20196;-79
2021/01/28 18:25:59;;;;;;;25.47;7.43;;;;;10.20;99852.00;;;;10464879;28;20872;-78
2021/01/28 18:31:02;;;;;;;27.57;6.97;;;;;10.30;99868.00;;;;10505376;28;20588;-78
2021/01/28 18:36:04;;;;;;;32.30;5.60;;;;;10.20;99861.00;;;;10527349;28;20204;-78
2021/01/28 18:41:08;;;;;;;20.80;6.10;;;;;10.20;99870.00;;;;10457701;28;20193;-79
2021/01/28 18:46:10;;;;;;;24.97;6.17;;;;;10.10;99854.00;;;;10484674;28;20238;-78
2021/01/28 18:51:16;;;;;;;23.33;6.13;;;;;10.00;99856.00;;;;10479240;28;20568;-78
2021/01/28 18:56:17;;;;;;;23.10;6.47;;;;;9.90;99853.00;;;;10447698;28;20213;-78
2021/01/28 19:01:19;;;;;;;22.90;6.40;;;;;9.80;99856.00;;;;10451664;28;20224;-79
2021/01/28 19:06:20;;;;;;;26.67;11.17;;;;;9.60;99849.00;;;;10475098;28;20209;-80
2021/01/28 19:11:23;;;;;;;31.50;10.27;;;;;9.50;99854.00;;;;10487256;28;20206;-79
2021/01/28 19:16:27;;;;;;;35.50;8.60;;;;;9.50;99852.00;;;;10514815;28;20208;-79
2021/01/28 19:21:29;;;;;;;32.13;7.90;;;;;9.50;99848.00;;;;10485596;28;20185;-79
2021/01/28 19:26:30;;;;;;;35.23;10.00;;;;;9.40;99834.00;;;;10481170;28;20194;-80
2021/01/28 19:31:32;;;;;;;30.97;8.77;;;;;9.30;99841.00;;;;10458967;28;20205;-79
2021/01/28 19:36:34;;;;;;;19.73;6.10;;;;;9.20;99833.00;;;;10464061;28;20198;-79
2021/01/28 19:41:35;;;;;;;26.63;7.07;;;;;9.10;99819.00;;;;10469781;28;20202;-79
2021/01/28 19:46:37;;;;;;;33.97;7.20;;;;;9.10;99826.00;;;;10488328;28;20274;-80
2021/01/28 19:51:39;;;;;;;34.97;7.80;;;;;9.00;99810.00;;;;10462880;28;20607;-79
2021/01/28 19:56:40;;;;;;;33.27;9.47;;;;;8.90;99812.00;;;;10461244;28;20247;-79
2021/01/28 20:01:42;;;;;;;28.90;8.30;;;;;8.80;99803.00;;;;10475951;28;20193;-78
2021/01/28 20:06:43;;;;;;;27.17;7.13;;;;;8.80;99805.00;;;;10457751;28;20205;-78
2021/01/28 20:11:45;;;;;;;23.17;6.43;;;;;8.80;99795.00;;;;10455202;28;20234;-79
2021/01/28 20:16:46;;;;;;;27.83;8.60;;;;;8.80;99795.00;;;;10481562;28;20656;-78
2021/01/28 20:21:47;;;;;;;35.07;11.87;;;;;8.80;99786.00;;;;10455252;28;20848;-78
2021/01/28 20:26:49;;;;;;;33.37;9.50;;;;;8.80;99772.00;;;;10464244;28;20208;-79
2021/01/28 20:31:52;;;;;;;24.63;6.73;;;;;8.80;99792.00;;;;10444490;28;20262;-78
2021/01/28 20:36:54;;;;;;;31.23;9.60;;;;;8.80;99782.00;;;;10467846;28;20292;-79
2021/01/28 20:41:55;;;;;;;28.13;8.40;;;;;8.80;99780.00;;;;10484848;28;20247;-79
2021/01/28 20:46:57;;;;;;;33.30;7.87;;;;;8.90;99776.00;;;;10487249;28;20395;-78
2021/01/28 20:52:00;;;;;;;25.53;8.03;;;;;8.90;99770.00;;;;10432311;28;20305;-79
2021/01/28 20:57:04;;;;;;;25.00;8.30;;;;;8.90;99774.00;;;;10494143;28;20213;-79
2021/01/28 21:02:06;;;;;;;30.23;10.90;;;;;9.00;99765.00;;;;10457729;28;20194;-79
2021/01/28 21:07:07;;;;;;;40.47;10.10;;;;;9.00;99761.00;;;;10501374;28;20560;-79
2021/01/28 21:12:09;;;;;;;32.63;10.40;;;;;9.00;99750.00;;;;10462679;28;20681;-78
2021/01/28 21:17:10;;;;;;;35.10;11.33;;;;;9.00;99734.00;;;;10492864;28;20197;-79
2021/01/28 21:22:12;;;;;;;39.07;14.93;;;;;9.10;99725.00;;;;10455630;28;20561;-79
2021/01/28 21:27:13;;;;;;;41.87;13.50;;;;;9.30;99724.00;;;;10473019;28;20221;-79
2021/01/28 21:32:15;;;;;;;35.57;12.03;;;;;9.30;99709.00;;;;10481363;28;20312;-79
2021/01/28 21:37:16;;;;;;;26.10;10.77;;;;;9.40;99700.00;;;;10479952;28;20744;-79
2021/01/28 21:42:18;;;;;;;14.00;8.30;;;;;9.40;99695.00;;;;10447948;28;20201;-79
2021/01/28 21:47:19;;;;;;;17.67;8.03;;;;;9.40;99680.00;;;;10462962;28;20190;-79
2021/01/28 21:52:21;;;;;;;25.77;8.20;;;;;9.50;99677.00;;;;10488842;28;20343;-80
2021/01/28 21:57:22;;;;;;;16.17;8.73;;;;;9.50;99675.00;;;;10470410;28;20194;-80
2021/01/28 22:02:24;;;;;;;23.80;7.70;;;;;9.60;99660.00;;;;10473031;28;20203;-81
2021/01/28 22:07:25;;;;;;;18.40;8.53;;;;;9.60;99645.00;;;;10460603;28;20718;-80
2021/01/28 22:12:26;;;;;;;18.03;8.20;;;;;9.70;99651.00;;;;10466511;28;20255;-80
2021/01/28 22:17:28;;;;;;;16.13;7.27;;;;;9.70;99644.00;;;;10490674;28;20273;-81
2021/01/28 22:22:29;;;;;;;25.30;9.83;;;;;9.80;99647.00;;;;10498626;28;20181;-81
2021/01/28 22:27:31;;;;;;;25.33;8.10;;;;;9.80;99633.00;;;;10486315;28;20193;-80
2021/01/28 22:32:32;;;;;;;25.13;7.57;;;;;9.70;99615.00;;;;10480530;28;20251;-80
2021/01/28 22:37:34;;;;;;;24.33;7.27;;;;;9.70;99606.00;;;;10488338;28;20676;-80
2021/01/28 22:42:36;;;;;;;29.23;7.43;;;;;9.80;99605.00;;;;10472858;28;20189;-79
2021/01/28 22:47:37;;;;;;;26.03;6.23;;;;;9.80;99596.00;;;;10461063;28;20653;-80
2021/01/28 22:52:40;;;;;;;23.43;5.77;;;;;9.80;99570.00;;;;10468923;28;20205;-80
2021/01/28 22:57:41;;;;;;;29.63;7.03;;;;;9.90;99566.00;;;;10474083;28;20197;-80
2021/01/28 23:02:44;;;;;;;28.67;6.57;;;;;9.90;99552.00;;;;10487714;28;20267;-80
2021/01/28 23:07:45;;;;;;;23.33;5.57;;;;;9.90;99542.00;;;;10471169;28;20213;-81
2021/01/28 23:12:47;;;;;;;29.13;6.00;;;;;9.90;99529.00;;;;10455423;28;20194;-80
2021/01/28 23:17:50;;;;;;;29.23;6.13;;;;;9.90;99528.00;;;;10489021;28;20217;-80
2021/01/28 23:22:55;;;;;;;15.07;5.10;;;;;9.90;99517.00;;;;10455099;28;20231;-80
2021/01/28 23:27:57;;;;;;;26.20;5.50;;;;;9.90;99493.00;;;;10454377;28;20561;-80
2021/01/28 23:33:03;;;;;;;26.83;5.23;;;;;9.90;99481.00;;;;10469891;28;20210;-79
2021/01/28 23:38:05;;;;;;;22.07;4.90;;;;;9.90;99468.00;;;;10466089;28;20194;-79
2021/01/28 23:43:14;;;;;;;21.77;5.20;;;;;9.90;99459.00;;;;10481560;28;20964;-79
2021/01/28 23:48:16;;;;;;;15.40;4.63;;;;;9.80;99433.00;;;;10431076;28;20230;-79
2021/01/28 23:53:19;;;;;;;14.43;3.90;;;;;9.70;99430.00;;;;10483827;28;20209;-79
2021/01/28 23:58:20;;;;;;;15.83;4.97;;;;;9.70;99418.00;;;;10483063;28;20205;-80
